Senador Nilo Coelho Airport

SBPL · 伯南布哥州, 巴西

METAR SBPL · Senador Nilo Coelho Airport

23 四月 01:00 LT
2m
罗盘
风向 的 风向 090° Senador Nilo Coelho Airport 13/31
风: 3 kt, 1 beaufort

3 kt

1 kt
改变
0 ft 1.000 2.000 3.000 4.000 5.000
Cloud Cloud Cloud Cloud Cloud Cloud
BKN 2.000
METAR SBPL 230400Z 09003KT 9999 BKN020 25/23 Q1014

METAR Senador Nilo Coelho Airport - SBPL/PNZ

Senador Nilo Coelho Airport是,巴西中的中型机场。 该机场位于纬度-9,36242和经度-40,56910。 该机场有一条跑道: 13/31. 本场的ICAO机场代码为SBPL。 该机场的IATA代码为PNZ。 机场在Recife FIR中。

该航空气象观测是针对Senador Nilo Coelho Airport在2024年4月23日 01:00, 当地时间进行的。

机场观察

风向为090°,速度为3 kt。

可见度为10 km 或者更多。

有碎云在2.000 ft的高度。 破损或更高的上限为2.000 ft。

温度和风寒是25 °C。 露点为23 °C,相对湿度为89%。 海平面上的气压为1014 hPa (QNH)。

白天

今天,太阳从05:45升起,在17:35降落。 这适用于Senador Nilo Coelho Airport,世界夏令时可能有所不同。 当地时间与世界标准时间之间的时差为-3 小时。 夏令时目前正在进行中。

公司介绍

我们没有关于这个机场的公司信息。

体会

到Vliegles.nl去找飞行课程,跳伞和其他飞行体验。 浏览页面,了解Senador Nilo Coelho Airport附近所有可用的活动。 你也可以使用搜索功能来寻找你所在地附近的特定飞行课程、跳伞或其他飞行体验。

跑道

Id 标题 侧风 逆风 侧风 %
13/31 109°-289° 3 kt 33 %

逆风成分最大的方向会被突出显示,并用于横风计算。 这并不一定意味着这个方向在使用。

乌云

2.000 ft BKN 碎云

温度 & 天气

温度 25 °C
露点 23 °C
相对湿度 89%
Kp-index 0 (0-9)

白天

日出
05:45 (4:43)
中午
11:40
日落
17:35

小工具

你想在你的网站上有一个关于Senador Nilo Coelho Airport的当前航空天气(METAR)的小部件吗?

显示HTML代码
报告变更